Time;durP1;ratioP1;P1;durP2;ratioP2;P2;SDS_P1;SDS_P2;PMS_P1;PMS_P2;Temp;Humidity;BMP_temperature;BMP_pressure;BME280_temperature;BME280_humidity;BME280_pressure;Samples;Min_cycle;Max_cycle;Signal;HPM_P1;HPM_P2
2023/01/10 00:00:36;;;;;;;1.05;0.75;;;;;;;4.37;100.00;100031.72;5073292;28;20028;-81
2023/01/10 00:03:03;;;;;;;0.30;0.30;;;;;;;4.39;100.00;100039.53;5072990;28;20486;-82
2023/01/10 00:05:29;;;;;;;0.50;0.50;;;;;;;4.36;100.00;100011.41;5056672;28;20486;-81
2023/01/10 00:07:55;;;;;;;0.40;0.40;;;;;;;4.35;100.00;100009.75;5056184;28;20103;-81
2023/01/10 00:10:21;;;;;;;1.88;1.00;;;;;;;4.46;100.00;100015.81;5072787;28;20031;-81
2023/01/10 00:15:34;;;;;;;1.10;1.02;;;;;;;4.48;100.00;99997.88;5073897;28;20074;-81
2023/01/10 00:18:00;;;;;;;0.60;0.60;;;;;;;4.47;100.00;99996.19;5056518;28;20024;-81
2023/01/10 00:20:26;;;;;;;0.60;0.60;;;;;;;4.43;100.00;99978.88;5074127;28;20035;-80
2023/01/10 00:22:51;;;;;;;0.40;0.40;;;;;;;4.49;100.00;99987.06;5056376;28;20029;-81
2023/01/10 00:25:20;;;;;;;1.98;0.93;;;;;;;4.55;100.00;99982.94;5072126;28;20089;-80
2023/01/10 00:27:56;;;;;;;0.68;0.68;;;;;;;4.56;100.00;99973.97;5073946;28;20039;-79
2023/01/10 00:30:22;;;;;;;0.60;0.60;;;;;;;4.53;100.00;99947.66;5073984;28;20055;-80
2023/01/10 00:32:48;;;;;;;0.50;0.50;;;;;;;4.62;100.00;99947.53;5072458;28;20470;-80
2023/01/10 00:35:14;;;;;;;0.70;0.70;;;;;;;4.59;100.00;99931.06;5073590;28;20463;-79
2023/01/10 00:37:39;;;;;;;0.40;0.40;;;;;;;4.56;100.00;99899.44;5056319;28;20098;-80
2023/01/10 00:40:10;;;;;;;0.82;0.77;;;;;;;4.57;100.00;99893.09;5072766;28;20520;-80
2023/01/10 00:45:21;;;;;;;0.40;0.40;;;;;;;4.59;100.00;99862.66;5072532;28;20474;-79
2023/01/10 00:47:47;;;;;;;0.50;0.50;;;;;;;4.59;100.00;99859.16;5072696;28;20028;-79
2023/01/10 00:50:13;;;;;;;0.55;0.45;;;;;;;4.54;100.00;99821.53;5039507;28;20044;-79
2023/01/10 00:52:39;;;;;;;0.80;0.80;;;;;;;4.54;100.00;99794.91;5039470;28;20048;-80
2023/01/10 00:55:05;;;;;;;0.63;0.63;;;;;;;4.50;100.00;99783.75;5072430;28;20032;-79
2023/01/10 00:57:31;;;;;;;0.40;0.40;;;;;;;4.57;100.00;99789.25;5072480;28;20539;-79
2023/01/10 00:59:59;;;;;;;0.40;0.40;;;;;;;4.52;100.00;99757.78;5072628;28;20036;-79
2023/01/10 01:02:24;;;;;;;0.40;0.40;;;;;;;4.57;100.00;99762.63;5055785;28;20024;-79
2023/01/10 01:04:50;;;;;;;0.50;0.50;;;;;;;4.52;100.00;99739.16;5072459;28;20028;-80
2023/01/10 01:07:16;;;;;;;0.50;0.50;;;;;;;4.56;100.00;99734.38;5072475;28;20036;-80
2023/01/10 01:12:25;;;;;;;0.40;0.40;;;;;;;4.48;100.00;99726.34;5058426;28;20120;-79
2023/01/10 01:14:51;;;;;;;1.15;0.73;;;;;;;4.59;100.00;99729.53;5055618;28;20056;-79
2023/01/10 01:17:17;;;;;;;0.50;0.50;;;;;;;4.51;100.00;99704.72;5055696;28;20029;-79
2023/01/10 01:19:43;;;;;;;0.50;0.50;;;;;;;4.57;100.00;99693.41;5072364;28;20025;-80
2023/01/10 01:22:08;;;;;;;0.88;0.80;;;;;;;4.67;100.00;99704.75;5055816;28;20032;-79
2023/01/10 01:24:34;;;;;;;0.43;0.43;;;;;;;4.74;100.00;99695.13;5039325;28;20560;-79
2023/01/10 01:27:00;;;;;;;0.50;0.50;;;;;;;4.71;100.00;99676.81;5071935;28;20493;-79
2023/01/10 01:29:25;;;;;;;0.50;0.50;;;;;;;4.78;100.00;99675.16;5055661;28;20455;-79
2023/01/10 01:31:51;;;;;;;0.60;0.60;;;;;;;4.79;100.00;99644.00;5055529;28;20039;-79
2023/01/10 01:34:16;;;;;;;0.50;0.50;;;;;;;4.84;100.00;99652.34;5055206;28;20025;-79
2023/01/10 01:36:42;;;;;;;0.50;0.50;;;;;;;4.84;100.00;99633.69;5057286;28;20035;-79
2023/01/10 01:39:10;;;;;;;0.50;0.50;;;;;;;4.89;100.00;99617.22;5059468;28;20052;-80
2023/01/10 01:44:20;;;;;;;0.50;0.50;;;;;;;4.97;100.00;99617.22;5061936;28;20470;-80
2023/01/10 01:47:08;;;;;;;0.40;0.40;;;;;;;4.94;100.00;99591.75;5075842;28;20119;-79
2023/01/10 01:49:37;;;;;;;0.40;0.40;;;;;;;5.02;100.00;99591.72;5065823;28;20494;-79
2023/01/10 01:52:08;;;;;;;0.40;0.40;;;;;;;5.10;100.00;99582.91;5059298;28;20041;-79
2023/01/10 01:54:34;;;;;;;0.40;0.40;;;;;;;5.14;100.00;99584.25;5042691;28;20150;-79
2023/01/10 01:57:03;;;;;;;0.40;0.40;;;;;;;5.21;100.00;99577.25;5058899;28;20033;-80
2023/01/10 01:59:49;;;;;;;0.50;0.50;;;;;;;5.27;100.00;99557.06;5075251;28;20036;-79
2023/01/10 02:02:21;;;;;;;0.40;0.40;;;;;;;5.32;100.00;99537.88;5059001;28;20043;-79
2023/01/10 02:04:52;;;;;;;0.40;0.40;;;;;;;5.29;100.00;99526.56;5058587;28;20500;-80
2023/01/10 02:07:18;;;;;;;0.40;0.40;;;;;;;5.42;100.00;99533.19;5058994;28;20154;-79
2023/01/10 02:09:53;;;;;;;0.50;0.50;;;;;;;5.49;100.00;99518.97;5059048;28;20033;-79
2023/01/10 02:12:19;;;;;;;1.23;0.80;;;;;;;5.54;100.00;99505.13;5059015;28;20044;-79
2023/01/10 02:14:47;;;;;;;0.40;0.40;;;;;;;5.58;100.00;99490.44;5076120;28;20024;-79
2023/01/10 02:17:12;;;;;;;0.50;0.50;;;;;;;5.64;100.00;99499.59;5075010;28;20060;-79
2023/01/10 02:19:54;;;;;;;0.40;0.40;;;;;;;5.73;100.00;99469.19;5074960;28;20063;-80
2023/01/10 02:22:47;;;;;;;0.40;0.40;;;;;;;5.79;100.00;99457.00;5075411;28;20110;-80
2023/01/10 02:25:58;;;;;;;0.50;0.50;;;;;;;5.85;100.00;99456.31;5076067;28;20390;-79
2023/01/10 02:28:42;;;;;;;0.40;0.40;;;;;;;5.88;100.00;99447.94;5051999;28;20040;-79
2023/01/10 02:31:10;;;;;;;0.40;0.40;;;;;;;5.92;100.00;99439.38;5075245;28;20032;-80
2023/01/10 02:33:46;;;;;;;0.40;0.40;;;;;;;5.94;100.00;99417.91;5058465;28;20032;-79
2023/01/10 02:36:21;;;;;;;0.30;0.30;;;;;;;5.85;100.00;99384.28;5058220;28;20109;-79
2023/01/10 02:39:01;;;;;;;0.32;0.32;;;;;;;6.01;100.00;99394.84;5075200;28;20133;-79
2023/01/10 02:41:57;;;;;;;0.50;0.50;;;;;;;6.07;100.00;99393.28;5058064;28;20037;-79
2023/01/10 02:44:31;;;;;;;0.40;0.40;;;;;;;6.13;100.00;99382.72;5076347;28;20068;-80
2023/01/10 02:47:02;;;;;;;0.50;0.50;;;;;;;6.16;100.00;99365.50;5074682;28;20063;-79
2023/01/10 02:49:29;;;;;;;0.40;0.40;;;;;;;6.24;100.00;99357.41;5073996;28;20049;-79
2023/01/10 02:51:55;;;;;;;0.40;0.40;;;;;;;6.28;100.00;99369.41;5041685;28;20500;-80
2023/01/10 02:54:26;;;;;;;0.40;0.40;;;;;;;6.33;100.00;99350.19;5075909;28;20036;-80
2023/01/10 02:57:10;;;;;;;0.40;0.40;;;;;;;6.35;100.00;99326.78;5057903;28;20064;-80
2023/01/10 03:00:01;;;;;;;0.43;0.43;;;;;;;6.46;100.00;99326.34;5075580;28;20074;-79
2023/01/10 03:02:43;;;;;;;0.40;0.40;;;;;;;6.38;100.00;99281.88;5075672;28;20020;-79
2023/01/10 03:05:39;;;;;;;0.50;0.50;;;;;;;6.57;100.00;99307.19;5074559;28;20025;-80
2023/01/10 03:08:42;;;;;;;0.50;0.50;;;;;;;6.56;100.00;99277.97;5074568;28;20024;-79
2023/01/10 03:11:09;;;;;;;0.40;0.40;;;;;;;6.62;100.00;99274.56;5057837;28;20028;-79
2023/01/10 03:13:43;;;;;;;0.40;0.40;;;;;;;6.79;100.00;99272.50;5074333;28;20040;-80
2023/01/10 03:16:14;;;;;;;0.40;0.40;;;;;;;6.86;100.00;99259.25;5075411;28;20037;-80
2023/01/10 03:19:05;;;;;;;0.40;0.40;;;;;;;6.91;100.00;99251.50;5057316;28;20453;-79
2023/01/10 03:21:31;;;;;;;0.30;0.30;;;;;;;6.97;100.00;99248.03;5057689;28;20510;-80
2023/01/10 03:24:05;;;;;;;0.40;0.40;;;;;;;6.99;100.00;99225.47;5057448;28;20111;-80
2023/01/10 03:26:45;;;;;;;0.47;0.47;;;;;;;7.04;100.00;99228.41;5074034;28;20067;-79
2023/01/10 03:29:12;;;;;;;0.40;0.40;;;;;;;7.05;100.00;99215.84;5074939;28;20429;-79
2023/01/10 03:31:51;;;;;;;0.30;0.30;;;;;;;7.13;100.00;99225.59;5057487;28;20032;-79
2023/01/10 03:34:17;;;;;;;0.40;0.40;;;;;;;7.16;100.00;99204.66;5040857;28;20046;-79
2023/01/10 03:36:59;;;;;;;0.47;0.47;;;;;;;7.17;100.00;99190.28;5073690;28;20111;-79
2023/01/10 03:39:46;;;;;;;0.40;0.40;;;;;;;7.24;100.00;99193.81;5040771;28;20040;-79
2023/01/10 03:42:24;;;;;;;0.40;0.40;;;;;;;7.43;100.00;99200.34;5057276;28;20433;-78
2023/01/10 03:45:08;;;;;;;0.30;0.30;;;;;;;7.58;100.00;99194.91;5074069;28;20462;-79
2023/01/10 03:47:40;;;;;;;0.40;0.40;;;;;;;7.64;100.00;99171.91;5040554;28;20040;-79
2023/01/10 03:50:09;;;;;;;0.40;0.40;;;;;;;7.81;100.00;99178.63;5073630;28;20115;-80
2023/01/10 03:52:36;;;;;;;0.30;0.30;;;;;;;7.86;100.00;99148.59;5040470;28;20036;-80
2023/01/10 03:55:02;;;;;;;0.40;0.40;;;;;;;7.92;100.00;99143.25;5074595;28;20454;-79
2023/01/10 03:57:28;;;;;;;0.80;0.40;;;;;;;7.95;100.00;99141.22;5056596;28;20506;-79
2023/01/10 03:59:58;;;;;;;0.40;0.40;;;;;;;7.96;100.00;99146.34;5073361;28;20048;-80
2023/01/10 04:02:29;;;;;;;0.30;0.30;;;;;;;8.00;100.00;99139.59;5057260;28;20036;-79
2023/01/10 04:04:55;;;;;;;0.40;0.40;;;;;;;8.05;100.00;99121.09;5056879;28;20032;-79
2023/01/10 04:07:21;;;;;;;0.40;0.40;;;;;;;8.12;100.00;99119.28;5040138;28;20040;-80
2023/01/10 04:09:47;;;;;;;0.40;0.40;;;;;;;8.22;100.00;99128.75;5056847;28;20032;-79
2023/01/10 04:12:13;;;;;;;0.30;0.30;;;;;;;8.26;100.00;99117.47;5056291;28;20082;-79
2023/01/10 04:14:38;;;;;;;0.40;0.40;;;;;;;8.31;100.00;99109.66;5073151;28;20486;-79
2023/01/10 04:17:06;;;;;;;0.30;0.30;;;;;;;8.39;100.00;99103.31;5056302;28;20067;-79
2023/01/10 04:19:32;;;;;;;0.30;0.30;;;;;;;8.45;100.00;99090.97;5056613;28;20038;-79
2023/01/10 04:21:58;;;;;;;0.40;0.40;;;;;;;8.50;100.00;99083.97;5073046;28;20025;-80
2023/01/10 04:24:23;;;;;;;0.40;0.40;;;;;;;8.53;100.00;99080.88;5073905;28;20024;-79
2023/01/10 04:26:49;;;;;;;0.40;0.40;;;;;;;8.52;100.00;99046.25;5073865;28;20064;-79
2023/01/10 04:29:15;;;;;;;0.50;0.50;;;;;;;8.59;100.00;99072.03;5056462;28;20041;-79
2023/01/10 04:31:41;;;;;;;0.40;0.40;;;;;;;8.65;100.00;99046.25;5039823;28;20082;-79
2023/01/10 04:34:07;;;;;;;0.40;0.40;;;;;;;8.66;100.00;99055.97;5039685;28;20036;-79
2023/01/10 04:36:33;;;;;;;0.30;0.30;;;;;;;8.59;100.00;99042.56;5072754;28;20038;-79
2023/01/10 04:38:59;;;;;;;0.30;0.30;;;;;;;8.68;100.00;99040.50;5072785;28;20108;-79
2023/01/10 04:41:24;;;;;;;0.30;0.30;;;;;;;8.70;100.00;99033.06;5056206;28;20052;-79
2023/01/10 04:43:50;;;;;;;0.38;0.38;;;;;;;8.74;100.00;99031.66;5039501;28;20532;-79
2023/01/10 04:46:16;;;;;;;0.40;0.40;;;;;;;8.79;100.00;99021.13;5055902;28;20036;-79
2023/01/10 04:48:42;;;;;;;0.40;0.40;;;;;;;8.81;100.00;99012.88;5039480;28;20036;-79
2023/01/10 04:51:07;;;;;;;0.40;0.40;;;;;;;8.89;100.00;99017.19;5072323;28;20029;-80
2023/01/10 04:53:33;;;;;;;0.30;0.30;;;;;;;8.95;100.00;99005.66;5055739;28;20097;-79
2023/01/10 04:56:06;;;;;;;0.40;0.40;;;;;;;9.05;100.00;99014.09;5073613;28;20410;-79
2023/01/10 04:58:36;;;;;;;0.40;0.40;;;;;;;9.08;100.00;98986.88;5055911;28;20037;-79
2023/01/10 05:01:09;;;;;;;0.30;0.30;;;;;;;9.16;100.00;99000.06;5072207;28;20033;-79
2023/01/10 05:03:34;;;;;;;0.40;0.40;;;;;;;9.16;100.00;98996.56;5072624;28;20094;-79
2023/01/10 05:06:00;;;;;;;0.85;0.35;;;;;;;9.18;100.00;98995.31;5055464;28;20036;-80
2023/01/10 05:08:26;;;;;;;0.30;0.30;;;;;;;9.17;100.00;98982.91;5055618;28;20024;-79
2023/01/10 05:10:51;;;;;;;0.40;0.40;;;;;;;9.17;100.00;98974.88;5054806;28;20035;-79
2023/01/10 05:13:17;;;;;;;0.30;0.30;;;;;;;9.28;100.00;98975.25;5072281;28;20039;-79
2023/01/10 05:15:45;;;;;;;0.50;0.50;;;;;;;9.34;100.00;98983.31;5055553;28;20028;-80
2023/01/10 05:18:11;;;;;;;0.30;0.30;;;;;;;9.39;100.00;98970.09;5055711;28;20117;-80
2023/01/10 05:20:36;;;;;;;0.40;0.40;;;;;;;9.42;100.00;98979.53;5072206;28;20071;-79
2023/01/10 05:23:02;;;;;;;0.35;0.35;;;;;;;9.43;100.00;98965.09;5071934;28;20028;-79
2023/01/10 05:25:30;;;;;;;0.40;0.40;;;;;;;9.39;100.00;98955.81;5055538;28;20567;-79
2023/01/10 05:27:55;;;;;;;0.40;0.40;;;;;;;9.49;100.00;98966.13;5073501;28;20119;-79
2023/01/10 05:30:21;;;;;;;0.40;0.40;;;;;;;9.51;100.00;98964.03;5039003;28;20032;-79
2023/01/10 05:32:46;;;;;;;0.40;0.40;;;;;;;9.51;100.00;98951.44;5071800;28;20028;-80
2023/01/10 05:35:12;;;;;;;0.40;0.40;;;;;;;9.55;100.00;98928.53;5072015;28;20473;-79
2023/01/10 05:37:38;;;;;;;0.30;0.30;;;;;;;9.57;100.00;98933.66;5072129;28;20029;-80
2023/01/10 05:40:04;;;;;;;0.30;0.30;;;;;;;9.60;100.00;98942.09;5072121;28;20028;-79
2023/01/10 05:42:29;;;;;;;0.30;0.30;;;;;;;9.67;100.00;98942.91;5072161;28;20037;-79
2023/01/10 05:44:55;;;;;;;0.30;0.30;;;;;;;9.72;100.00;98954.88;5073323;28;20471;-79
2023/01/10 05:47:21;;;;;;;0.40;0.40;;;;;;;9.75;100.00;98949.88;5072764;28;20033;-79
2023/01/10 05:49:46;;;;;;;0.40;0.40;;;;;;;9.76;100.00;98946.16;5071793;28;20052;-79
2023/01/10 05:52:12;;;;;;;0.40;0.40;;;;;;;9.88;100.00;98954.38;5038733;28;20090;-80
2023/01/10 05:54:38;;;;;;;0.30;0.30;;;;;;;9.86;100.00;98946.50;5055285;28;20028;-79
2023/01/10 05:57:03;;;;;;;0.30;0.30;;;;;;;9.87;100.00;98947.31;5055079;28;20099;-80
2023/01/10 05:59:29;;;;;;;0.40;0.40;;;;;;;9.93;100.00;98940.31;5038855;28;20041;-79
2023/01/10 06:01:54;;;;;;;0.40;0.40;;;;;;;9.99;100.00;98945.63;5055339;28;20036;-80
2023/01/10 06:04:20;;;;;;;0.30;0.30;;;;;;;9.94;100.00;98931.19;5071614;28;20028;-78
2023/01/10 06:06:46;;;;;;;0.30;0.30;;;;;;;10.09;100.00;98931.72;5038727;28;20036;-79
2023/01/10 06:09:11;;;;;;;0.40;0.40;;;;;;;10.19;100.00;98941.97;5055219;28;20032;-79
2023/01/10 06:11:37;;;;;;;0.38;0.38;;;;;;;10.34;100.00;98937.13;5071688;28;20017;-79
2023/01/10 06:14:04;;;;;;;0.30;0.30;;;;;;;10.44;100.00;98942.84;5072899;28;20025;-79
2023/01/10 06:16:29;;;;;;;0.30;0.30;;;;;;;10.59;100.00;98939.00;5054794;28;20475;-79
2023/01/10 06:18:55;;;;;;;0.30;0.30;;;;;;;10.66;100.00;98939.75;5071848;28;20043;-79
2023/01/10 06:21:21;;;;;;;0.32;0.32;;;;;;;10.80;100.00;98935.91;5055083;28;20108;-79
2023/01/10 06:23:47;;;;;;;0.30;0.30;;;;;;;10.93;100.00;98925.03;5074502;28;20028;-78
2023/01/10 06:26:12;;;;;;;0.30;0.30;;;;;;;11.10;100.00;98933.31;5076146;28;20470;-79
2023/01/10 06:28:39;;;;;;;0.88;0.60;;;;;;;11.19;100.00;98931.97;5075130;28;20028;-79
2023/01/10 06:31:07;;;;;;;0.70;0.40;;;;;;;11.24;100.00;98920.53;5075210;28;20036;-79
2023/01/10 06:33:33;;;;;;;0.73;0.43;;;;;;;11.22;100.00;98904.63;5058660;28;20024;-79
2023/01/10 06:35:59;;;;;;;0.30;0.30;;;;;;;11.26;100.00;98918.44;5041981;28;20154;-79
2023/01/10 06:38:24;;;;;;;0.30;0.30;;;;;;;11.25;100.00;98921.38;5074971;28;20506;-79
2023/01/10 06:40:50;;;;;;;0.30;0.30;;;;;;;11.29;100.00;98915.28;5041820;28;20036;-79
2023/01/10 06:43:15;;;;;;;0.30;0.30;;;;;;;11.23;100.00;98908.94;5076318;28;20040;-80
2023/01/10 06:45:41;;;;;;;0.30;0.30;;;;;;;11.23;100.00;98898.19;5074685;28;20548;-80
2023/01/10 06:48:07;;;;;;;0.43;0.43;;;;;;;11.33;100.00;98903.03;5058184;28;20060;-79
2023/01/10 06:50:32;;;;;;;0.38;0.38;;;;;;;11.30;100.00;98895.44;5074764;28;20048;-79
2023/01/10 06:53:00;;;;;;;0.40;0.40;;;;;;;11.33;100.00;98886.09;5041632;28;20048;-79
2023/01/10 06:55:26;;;;;;;0.30;0.30;;;;;;;11.39;100.00;98891.38;5058059;28;20482;-79
2023/01/10 06:57:59;;;;;;;0.40;0.40;;;;;;;11.36;100.00;98870.31;5074206;28;20028;-79
2023/01/10 07:00:26;;;;;;;1.08;0.40;;;;;;;11.39;100.00;98882.47;5074543;28;20051;-80
2023/01/10 07:02:55;;;;;;;0.30;0.30;;;;;;;11.35;100.00;98875.91;5074238;28;20052;-79
2023/01/10 07:05:21;;;;;;;0.30;0.30;;;;;;;11.34;100.00;98877.78;5074464;28;20064;-79
2023/01/10 07:07:46;;;;;;;0.77;0.50;;;;;;;11.35;100.00;98867.81;5074559;28;20125;-79
2023/01/10 07:10:12;;;;;;;1.17;0.45;;;;;;;11.36;100.00;98864.91;5057451;28;20082;-79
2023/01/10 07:12:37;;;;;;;0.50;0.50;;;;;;;11.36;100.00;98848.78;5075578;28;20046;-79
2023/01/10 07:15:04;;;;;;;0.47;0.47;;;;;;;11.37;100.00;98861.16;5057668;28;20460;-79
2023/01/10 07:17:29;;;;;;;0.77;0.60;;;;;;;11.42;100.00;98850.53;5075527;28;20073;-80
2023/01/10 07:19:55;;;;;;;0.30;0.30;;;;;;;11.42;100.00;98845.16;5057639;28;20060;-79
2023/01/10 07:22:21;;;;;;;0.63;0.63;;;;;;;11.42;100.00;98850.53;5074033;28;20036;-79
2023/01/10 07:24:46;;;;;;;0.30;0.30;;;;;;;11.39;100.00;98848.31;5073745;28;20039;-79
2023/01/10 07:27:12;;;;;;;0.30;0.30;;;;;;;11.41;100.00;98840.84;5041012;28;20470;-79
2023/01/10 07:29:37;;;;;;;0.55;0.40;;;;;;;11.37;100.00;98850.41;5074159;28;20033;-79
2023/01/10 07:32:04;;;;;;;0.40;0.40;;;;;;;11.17;100.00;98815.72;5073894;28;20427;-79
2023/01/10 07:34:29;;;;;;;0.30;0.30;;;;;;;11.36;100.00;98843.38;5056591;28;20123;-79
2023/01/10 07:36:55;;;;;;;0.40;0.40;;;;;;;11.41;100.00;98831.94;5073708;28;20104;-79
2023/01/10 07:39:21;;;;;;;0.40;0.40;;;;;;;11.41;100.00;98840.84;5074682;28;20471;-79
2023/01/10 07:41:48;;;;;;;0.38;0.38;;;;;;;11.45;100.00;98831.25;5040569;28;20098;-79
2023/01/10 07:44:14;;;;;;;0.40;0.40;;;;;;;11.49;100.00;98825.44;5056740;28;20032;-79
2023/01/10 07:46:40;;;;;;;0.40;0.40;;;;;;;11.45;100.00;98827.75;5040563;28;20145;-78
2023/01/10 07:49:08;;;;;;;0.30;0.30;;;;;;;11.47;100.00;98819.44;5056963;28;20061;-79
2023/01/10 07:51:33;;;;;;;0.30;0.30;;;;;;;11.49;100.00;98823.56;5073295;28;20028;-79
2023/01/10 07:53:59;;;;;;;0.30;0.30;;;;;;;11.51;100.00;98828.69;5073452;28;20509;-79
2023/01/10 07:56:24;;;;;;;0.30;0.30;;;;;;;11.47;100.00;98817.56;5056791;28;20467;-80
2023/01/10 07:58:50;;;;;;;0.30;0.30;;;;;;;11.49;100.00;98812.78;5073253;28;20038;-80
2023/01/10 08:01:16;;;;;;;0.40;0.40;;;;;;;11.53;100.00;98815.81;5073241;28;20082;-80
2023/01/10 08:03:41;;;;;;;0.35;0.35;;;;;;;11.54;100.00;98822.88;5056392;28;20485;-80
2023/01/10 08:06:12;;;;;;;0.65;0.35;;;;;;;11.52;100.00;98815.00;5074136;28;20064;-80
2023/01/10 08:08:38;;;;;;;0.30;0.30;;;;;;;11.55;100.00;98814.56;5040603;28;20036;-81
2023/01/10 08:11:04;;;;;;;0.40;0.40;;;;;;;11.57;100.00;98815.16;5040144;28;20043;-81
2023/01/10 08:13:30;;;;;;;0.30;0.30;;;;;;;11.43;100.00;98779.53;5072874;28;20462;-80
2023/01/10 08:15:56;;;;;;;0.22;0.22;;;;;;;11.48;100.00;98786.09;5039922;28;20054;-80
2023/01/10 08:18:23;;;;;;;0.30;0.30;;;;;;;11.55;100.00;98778.75;5073080;28;20129;-80
2023/01/10 08:20:50;;;;;;;0.40;0.40;;;;;;;11.59;100.00;98779.91;5073260;28;20062;-80
2023/01/10 08:23:17;;;;;;;0.50;0.50;;;;;;;11.55;100.00;98782.25;5072692;28;20090;-80
2023/01/10 08:25:43;;;;;;;0.40;0.40;;;;;;;11.48;100.00;98776.13;5039899;28;20063;-80
2023/01/10 08:28:08;;;;;;;0.30;0.30;;;;;;;11.58;100.00;98775.59;5072637;28;20466;-80
2023/01/10 08:30:34;;;;;;;0.40;0.40;;;;;;;11.54;100.00;98779.81;5056387;28;20036;-81
2023/01/10 08:33:04;;;;;;;0.40;0.40;;;;;;;11.56;100.00;98783.88;5056255;28;20036;-80
2023/01/10 08:35:30;;;;;;;0.40;0.40;;;;;;;11.57;100.00;98790.09;5039619;28;20379;-80
2023/01/10 08:37:59;;;;;;;0.40;0.40;;;;;;;11.58;100.00;98781.78;5072451;28;20150;-81
2023/01/10 08:40:25;;;;;;;0.30;0.30;;;;;;;11.55;100.00;98778.75;5072426;28;20024;-81
2023/01/10 08:43:02;;;;;;;0.35;0.35;;;;;;;11.61;100.00;98775.94;5039523;28;20119;-81
2023/01/10 08:45:28;;;;;;;0.30;0.30;;;;;;;11.53;100.00;98760.13;5054975;28;20032;-80
2023/01/10 08:47:54;;;;;;;0.30;0.30;;;;;;;11.60;100.00;98766.22;5072611;28;20082;-80
2023/01/10 08:50:21;;;;;;;0.35;0.35;;;;;;;11.62;100.00;98766.00;5072198;28;20072;-79
2023/01/10 08:52:46;;;;;;;0.38;0.38;;;;;;;11.60;100.00;98768.09;5055913;28;20050;-79
2023/01/10 08:55:12;;;;;;;0.30;0.30;;;;;;;11.59;100.00;98747.59;5072121;28;20032;-79
2023/01/10 08:57:38;;;;;;;0.30;0.30;;;;;;;11.63;100.00;98756.88;5072509;28;20036;-80
2023/01/10 09:00:04;;;;;;;0.30;0.30;;;;;;;11.59;100.00;98755.69;5039335;28;20066;-79
2023/01/10 09:02:30;;;;;;;0.40;0.40;;;;;;;11.64;100.00;98748.59;5055545;28;20058;-79
2023/01/10 09:04:56;;;;;;;0.40;0.40;;;;;;;11.63;100.00;98741.53;5073390;28;20028;-79
2023/01/10 09:07:21;;;;;;;0.30;0.30;;;;;;;11.68;100.00;98754.31;5072355;28;20386;-79
2023/01/10 09:09:47;;;;;;;0.40;0.40;;;;;;;11.65;100.00;98754.78;5072354;28;20478;-79
2023/01/10 09:14:57;;;;;;;0.40;0.40;;;;;;;11.67;100.00;98747.28;5072544;28;20462;-79
2023/01/10 09:17:22;;;;;;;0.40;0.40;;;;;;;11.65;100.00;98711.72;5055128;28;20120;-79
2023/01/10 09:19:48;;;;;;;0.30;0.30;;;;;;;11.63;100.00;98716.50;5072254;28;20359;-79
2023/01/10 09:22:14;;;;;;;0.30;0.30;;;;;;;11.53;100.00;98695.53;5039122;28;20055;-78
2023/01/10 09:24:42;;;;;;;0.30;0.30;;;;;;;11.63;100.00;98714.63;5073367;28;20041;-79
2023/01/10 09:27:10;;;;;;;0.40;0.40;;;;;;;11.69;100.00;98718.25;5072162;28;20078;-78
2023/01/10 09:29:37;;;;;;;0.30;0.30;;;;;;;11.68;100.00;98718.50;5055902;28;20117;-78
2023/01/10 09:32:03;;;;;;;0.40;0.40;;;;;;;11.69;100.00;98707.47;5039027;28;20052;-78
2023/01/10 09:34:29;;;;;;;0.30;0.30;;;;;;;11.68;100.00;98705.84;5055752;28;20105;-78
2023/01/10 09:36:55;;;;;;;0.30;0.30;;;;;;;11.71;100.00;98702.69;5055312;28;20079;-78
2023/01/10 09:39:20;;;;;;;0.30;0.30;;;;;;;11.71;100.00;98701.88;5072106;28;20033;-77
2023/01/10 09:42:17;;;;;;;0.43;0.43;;;;;;;11.73;100.00;98699.78;5071526;28;20035;-78
2023/01/10 09:45:02;;;;;;;0.30;0.30;;;;;;;11.68;100.00;98680.81;5071725;28;20028;-78
2023/01/10 09:47:46;;;;;;;0.30;0.30;;;;;;;11.78;100.00;98695.31;5055219;28;20032;-77
2023/01/10 09:50:14;;;;;;;0.30;0.30;;;;;;;11.70;100.00;98684.09;5071599;28;20033;-78
2023/01/10 09:53:13;;;;;;;0.30;0.30;;;;;;;11.77;100.00;98677.50;5071925;28;20470;-78
2023/01/10 09:55:39;;;;;;;0.57;0.40;;;;;;;11.77;100.00;98688.28;5038473;28;20123;-78
2023/01/10 09:58:13;;;;;;;0.40;0.40;;;;;;;11.74;100.00;98686.06;5074277;28;20033;-78
2023/01/10 10:00:38;;;;;;;;;;;;;;;11.78;100.00;98692.63;5059662;28;20021;-78
2023/01/10 10:03:16;;;;;;;0.43;0.43;;;;;;;11.76;100.00;98681.28;5075558;28;19931;-78
2023/01/10 10:05:42;;;;;;;0.32;0.32;;;;;;;11.78;100.00;98681.06;5075286;28;20054;-78
2023/01/10 10:08:15;;;;;;;0.30;0.30;;;;;;;11.77;100.00;98668.63;5076632;28;20071;-78
2023/01/10 10:10:49;;;;;;;0.30;0.30;;;;;;;11.74;100.00;98661.84;5059236;28;20048;-78
2023/01/10 10:13:30;;;;;;;0.40;0.40;;;;;;;11.73;100.00;98646.75;5075219;28;20043;-78
2023/01/10 10:16:22;;;;;;;0.40;0.40;;;;;;;11.77;100.00;98666.75;5075231;28;20036;-78
2023/01/10 10:19:10;;;;;;;0.40;0.40;;;;;;;11.80;100.00;98660.91;5058809;28;20033;-78
2023/01/10 10:22:01;;;;;;;0.30;0.30;;;;;;;11.82;100.00;98650.69;5074882;28;20082;-78
2023/01/10 10:24:51;;;;;;;0.40;0.40;;;;;;;11.78;100.00;98638.78;5058531;28;20032;-78
2023/01/10 10:27:17;;;;;;;0.30;0.30;;;;;;;11.83;100.00;98646.16;5076137;28;20490;-78
2023/01/10 10:30:13;;;;;;;0.32;0.32;;;;;;;11.82;100.00;98637.25;5058681;28;20032;-79
2023/01/10 10:32:51;;;;;;;0.40;0.40;;;;;;;11.83;100.00;98644.28;5058070;28;20497;-78
2023/01/10 10:35:28;;;;;;;0.50;0.50;;;;;;;11.83;100.00;98633.50;5075113;28;20032;-79
2023/01/10 10:38:16;;;;;;;0.30;0.30;;;;;;;11.85;100.00;98631.41;5075092;28;20082;-79
2023/01/10 10:40:43;;;;;;;0.30;0.30;;;;;;;11.91;100.00;98624.28;5057601;28;20040;-79
2023/01/10 10:43:19;;;;;;;0.40;0.40;;;;;;;11.97;100.00;98622.53;5074805;28;20044;-78
2023/01/10 10:45:54;;;;;;;0.40;0.40;;;;;;;11.96;100.00;98623.56;5074884;28;20037;-79
2023/01/10 10:48:33;;;;;;;0.40;0.40;;;;;;;11.95;100.00;98603.88;5058367;28;20055;-78
2023/01/10 10:50:58;;;;;;;0.40;0.40;;;;;;;11.97;100.00;98606.34;5074723;28;20036;-81
2023/01/10 10:53:24;;;;;;;0.40;0.40;;;;;;;11.94;100.00;98601.44;5058008;28;20490;-80
2023/01/10 10:55:50;;;;;;;0.38;0.38;;;;;;;11.97;100.00;98609.88;5075709;28;20028;-81
2023/01/10 10:58:17;;;;;;;0.40;0.40;;;;;;;11.97;100.00;98600.97;5058157;28;20390;-80
2023/01/10 11:00:43;;;;;;;0.40;0.40;;;;;;;11.97;100.00;98599.09;5057818;28;20386;-79
2023/01/10 11:03:33;;;;;;;0.40;0.40;;;;;;;12.01;100.00;98602.97;5074522;28;20036;-80
2023/01/10 11:05:59;;;;;;;0.30;0.30;;;;;;;12.03;100.00;98591.94;5074471;28;20024;-80
2023/01/10 11:08:28;;;;;;;0.35;0.35;;;;;;;12.02;100.00;98590.31;5057490;28;20055;-79
2023/01/10 11:10:55;;;;;;;0.47;0.47;;;;;;;12.03;100.00;98583.84;5041316;28;20028;-79
2023/01/10 11:13:33;;;;;;;0.40;0.40;;;;;;;12.01;100.00;98576.03;5041127;28;20044;-80
2023/01/10 11:16:05;;;;;;;0.32;0.32;;;;;;;12.06;100.00;98575.28;5075146;28;20070;-80
2023/01/10 11:18:31;;;;;;;0.40;0.40;;;;;;;12.02;100.00;98576.84;5040966;28;20037;-80
2023/01/10 11:21:11;;;;;;;0.50;0.50;;;;;;;12.10;100.00;98577.28;5041063;28;20074;-79
2023/01/10 11:23:39;;;;;;;0.30;0.30;;;;;;;12.12;100.00;98563.56;5057362;28;20127;-79
2023/01/10 11:26:39;;;;;;;0.30;0.30;;;;;;;12.18;100.00;98561.78;5074995;28;20116;-79
2023/01/10 11:29:08;;;;;;;0.35;0.35;;;;;;;12.16;100.00;98555.81;5073730;28;20055;-78
2023/01/10 11:31:35;;;;;;;0.40;0.40;;;;;;;12.16;100.00;98535.09;5057249;28;20036;-79
2023/01/10 11:34:05;;;;;;;0.40;0.40;;;;;;;12.06;100.00;98524.91;5057465;28;20143;-79
2023/01/10 11:36:54;;;;;;;0.30;0.30;;;;;;;12.17;100.00;98538.59;5057375;28;20534;-79
2023/01/10 11:39:20;;;;;;;0.40;0.40;;;;;;;12.19;100.00;98529.22;5057391;28;20237;-79
2023/01/10 11:41:48;;;;;;;2.58;0.60;;;;;;;12.12;100.00;98516.94;5073871;28;20047;-78
2023/01/10 11:44:19;;;;;;;0.30;0.30;;;;;;;12.22;100.00;98514.44;5040788;28;20087;-78
2023/01/10 11:46:46;;;;;;;0.82;0.50;;;;;;;12.21;100.00;98502.84;5073281;28;20086;-79
2023/01/10 11:49:18;;;;;;;0.40;0.40;;;;;;;12.20;100.00;98503.91;5057038;28;20398;-79
2023/01/10 11:51:50;;;;;;;0.30;0.30;;;;;;;12.17;100.00;98499.03;5057535;28;20033;-78
2023/01/10 11:54:19;;;;;;;0.40;0.40;;;;;;;12.20;100.00;98492.31;5056919;28;20378;-79